createdAt,value
2022-12-08T00:00:47.495Z,87.00
2022-12-08T00:03:51.021Z,87.39
2022-12-08T00:07:11.931Z,87.27
2022-12-08T00:10:47.397Z,88.35
2022-12-08T00:13:37.983Z,88.77
2022-12-08T00:16:42.356Z,88.71
2022-12-08T00:19:45.948Z,88.66
2022-12-08T00:22:48.727Z,89.35
2022-12-08T00:25:51.897Z,89.11
2022-12-08T00:28:57.171Z,88.58
2022-12-08T00:32:01.656Z,89.07
2022-12-08T00:35:06.977Z,88.66
2022-12-08T00:38:09.940Z,88.02
2022-12-08T00:41:15.289Z,86.99
2022-12-08T00:44:20.072Z,85.69
2022-12-08T00:47:27.630Z,85.54
2022-12-08T00:50:30.363Z,86.33
2022-12-08T00:53:33.169Z,86.30
2022-12-08T00:56:36.557Z,87.03
2022-12-08T00:59:39.402Z,86.42
2022-12-08T01:02:43.781Z,86.91
2022-12-08T01:05:46.652Z,86.97
2022-12-08T01:08:49.723Z,87.08
2022-12-08T01:11:52.693Z,86.70
2022-12-08T01:15:00.621Z,87.02
2022-12-08T01:18:07.109Z,87.33
2022-12-08T01:21:10.048Z,87.63
2022-12-08T01:24:14.484Z,86.60
2022-12-08T01:27:17.845Z,86.27
2022-12-08T01:30:21.425Z,87.03
2022-12-08T01:33:26.117Z,87.20
2022-12-08T01:36:30.520Z,87.57
2022-12-08T01:39:33.555Z,87.78
2022-12-08T01:42:38.372Z,88.12
2022-12-08T01:45:43.103Z,86.83
2022-12-08T01:48:47.809Z,87.14
2022-12-08T01:51:56.294Z,87.13
2022-12-08T01:55:03.702Z,87.00
2022-12-08T01:58:16.323Z,87.09
2022-12-08T02:01:19.364Z,87.25
2022-12-08T02:04:23.736Z,86.62
2022-12-08T02:07:26.852Z,86.08
2022-12-08T02:10:32.218Z,85.77
2022-12-08T02:13:37.488Z,85.81
2022-12-08T02:16:46.862Z,86.29
2022-12-08T02:20:14.801Z,86.23
2022-12-08T02:23:25.233Z,85.90
2022-12-08T02:27:08.923Z,85.72
2022-12-08T02:30:23.014Z,85.62
2022-12-08T02:33:54.541Z,85.95
2022-12-08T02:37:06.929Z,85.66
2022-12-08T02:40:19.885Z,83.13
2022-12-08T02:43:30.708Z,82.83
2022-12-08T02:46:36.684Z,83.32
2022-12-08T02:49:41.784Z,84.03
2022-12-08T02:52:46.550Z,83.77
2022-12-08T02:55:59.060Z,84.10
2022-12-08T02:59:19.071Z,84.86
2022-12-08T03:02:41.868Z,85.91
2022-12-08T03:06:02.546Z,86.45
2022-12-08T03:09:11.610Z,85.68
2022-12-08T03:12:19.998Z,85.86
2022-12-08T03:15:23.315Z,86.19
2022-12-08T03:18:34.783Z,86.20
2022-12-08T03:21:41.358Z,85.42
2022-12-08T03:24:47.938Z,85.20
2022-12-08T03:27:52.668Z,84.85
2022-12-08T03:30:59.386Z,84.60
2022-12-08T03:34:03.886Z,83.98
2022-12-08T03:37:10.444Z,83.71
2022-12-08T03:40:16.246Z,83.94
2022-12-08T03:43:19.173Z,84.52
2022-12-08T03:49:26.031Z,83.35
2022-12-08T03:52:30.652Z,84.61
2022-12-08T03:55:33.353Z,86.19
2022-12-08T03:58:37.659Z,84.47
2022-12-08T04:01:40.874Z,84.56
2022-12-08T04:04:44.191Z,83.82
2022-12-08T04:07:48.347Z,84.08
2022-12-08T04:10:51.074Z,83.47
2022-12-08T04:13:54.437Z,82.85
2022-12-08T04:16:57.291Z,84.04
2022-12-08T04:20:00.186Z,84.43
2022-12-08T04:23:04.558Z,84.25
2022-12-08T04:26:08.321Z,84.31
2022-12-08T04:29:11.160Z,83.52
2022-12-08T04:32:13.998Z,83.80
2022-12-08T04:35:17.305Z,83.48
2022-12-08T04:38:21.541Z,84.33
2022-12-08T04:41:24.473Z,85.37
2022-12-08T04:44:29.979Z,85.38
2022-12-08T04:47:36.120Z,85.04
2022-12-08T04:50:40.789Z,83.95
2022-12-08T04:53:46.849Z,84.29
2022-12-08T04:56:49.862Z,84.03
2022-12-08T04:59:52.846Z,84.60
2022-12-08T05:02:55.701Z,85.40
2022-12-08T05:06:00.707Z,83.42
2022-12-08T05:09:05.211Z,84.72
2022-12-08T05:12:08.595Z,84.21
2022-12-08T05:15:11.797Z,84.04
2022-12-08T05:18:15.800Z,84.22
2022-12-08T05:21:18.590Z,84.30
2022-12-08T05:24:23.019Z,84.44
2022-12-08T05:27:25.925Z,84.65
2022-12-08T05:30:29.607Z,84.78
2022-12-08T05:33:32.748Z,84.01
2022-12-08T05:36:35.688Z,83.96
2022-12-08T05:39:40.310Z,84.16
2022-12-08T05:42:43.573Z,83.97
2022-12-08T05:45:47.109Z,84.35
2022-12-08T05:48:49.979Z,85.19
2022-12-08T05:51:55.495Z,84.25
2022-12-08T05:54:59.819Z,84.94
2022-12-08T05:58:07.608Z,85.10
2022-12-08T06:01:20.037Z,84.95
2022-12-08T06:04:23.350Z,85.43
2022-12-08T06:07:26.234Z,85.56
2022-12-08T06:10:31.293Z,85.04
2022-12-08T06:13:34.061Z,85.65
2022-12-08T06:16:37.586Z,84.90
2022-12-08T06:19:42.017Z,85.81
2022-12-08T06:22:44.934Z,85.53
2022-12-08T06:25:49.268Z,84.60
2022-12-08T06:28:54.657Z,85.58
2022-12-08T06:31:57.504Z,85.67
2022-12-08T06:35:00.322Z,84.59
2022-12-08T06:38:03.164Z,85.02
2022-12-08T06:41:08.402Z,84.28
2022-12-08T06:44:11.333Z,84.50
2022-12-08T06:47:26.315Z,84.43
2022-12-08T06:50:30.001Z,84.15
2022-12-08T06:53:32.984Z,85.22
2022-12-08T06:56:37.206Z,85.01
2022-12-08T06:59:40.852Z,86.17
2022-12-08T07:02:43.738Z,85.92
2022-12-08T07:05:46.537Z,85.13
2022-12-08T07:08:49.225Z,84.91
2022-12-08T07:11:53.394Z,86.04
2022-12-08T07:14:56.215Z,85.75
2022-12-08T07:18:00.281Z,86.80
2022-12-08T07:21:08.300Z,86.44
2022-12-08T07:24:11.521Z,86.48
2022-12-08T07:27:15.617Z,86.34
2022-12-08T07:30:18.933Z,86.09
2022-12-08T07:33:21.713Z,86.00
2022-12-08T07:36:25.394Z,86.17
2022-12-08T07:39:30.421Z,86.34
2022-12-08T07:42:34.824Z,86.83
2022-12-08T07:45:37.754Z,87.14
2022-12-08T07:48:40.531Z,87.63
2022-12-08T07:51:43.362Z,87.74
2022-12-08T07:54:46.287Z,87.27
2022-12-08T07:57:51.405Z,87.10
2022-12-08T08:00:54.532Z,87.29
2022-12-08T08:04:01.380Z,87.57
2022-12-08T08:07:07.287Z,87.11
2022-12-08T08:10:11.405Z,87.28
2022-12-08T08:13:15.526Z,87.95
2022-12-08T08:16:19.542Z,87.65
2022-12-08T08:19:22.932Z,87.08
2022-12-08T08:22:26.027Z,87.45
2022-12-08T08:25:28.769Z,87.12
2022-12-08T08:28:33.929Z,87.53
2022-12-08T08:31:36.747Z,88.51
2022-12-08T08:34:39.974Z,88.97
2022-12-08T08:37:47.208Z,89.63
2022-12-08T08:40:51.782Z,89.82
2022-12-08T08:43:57.142Z,89.95
2022-12-08T08:47:00.014Z,89.56
2022-12-08T08:50:03.047Z,90.08
2022-12-08T08:53:06.088Z,89.43
2022-12-08T08:56:10.716Z,89.18
2022-12-08T08:59:15.094Z,89.91
2022-12-08T09:02:19.904Z,89.93
2022-12-08T09:05:22.919Z,89.69
2022-12-08T09:08:27.232Z,89.20
2022-12-08T09:11:30.700Z,88.60
2022-12-08T09:14:35.504Z,88.43
2022-12-08T09:17:38.596Z,88.26
2022-12-08T09:20:41.382Z,88.34
2022-12-08T09:23:44.897Z,88.13
2022-12-08T09:26:48.321Z,86.15
2022-12-08T09:29:52.433Z,79.82
2022-12-08T09:32:55.459Z,77.26
2022-12-08T09:35:58.177Z,73.42
2022-12-08T09:39:00.902Z,68.29
2022-12-08T09:42:06.797Z,66.39
2022-12-08T09:45:13.908Z,65.58
2022-12-08T09:48:20.445Z,69.75
2022-12-08T09:51:25.722Z,73.40
2022-12-08T09:54:33.697Z,76.78
2022-12-08T09:57:37.503Z,77.74
2022-12-08T10:00:41.830Z,79.76
2022-12-08T10:03:44.609Z,80.02
2022-12-08T10:06:54.553Z,79.86
2022-12-08T10:10:03.935Z,81.09
2022-12-08T10:13:16.665Z,79.84
2022-12-08T10:16:30.138Z,79.54
2022-12-08T10:19:35.384Z,78.21
2022-12-08T10:22:44.349Z,77.88
2022-12-08T10:25:49.634Z,77.18
2022-12-08T10:28:52.553Z,75.69
2022-12-08T10:31:58.773Z,72.70
2022-12-08T10:35:05.694Z,73.07
2022-12-08T10:38:18.530Z,72.74
2022-12-08T10:41:21.407Z,72.03
2022-12-08T10:44:24.215Z,72.18
2022-12-08T10:47:30.350Z,72.68
2022-12-08T10:50:36.124Z,72.26
2022-12-08T10:53:47.396Z,72.49
2022-12-08T10:56:54.709Z,72.69
2022-12-08T10:59:58.773Z,72.88
2022-12-08T11:03:05.401Z,73.30
2022-12-08T11:06:17.354Z,73.68
2022-12-08T11:09:40.090Z,73.88
2022-12-08T11:12:45.319Z,72.15
2022-12-08T11:15:48.223Z,72.85
2022-12-08T11:18:58.917Z,70.51
2022-12-08T11:22:01.737Z,69.40
2022-12-08T11:25:11.597Z,70.05
2022-12-08T11:28:14.283Z,70.48
2022-12-08T11:31:30.434Z,69.96
2022-12-08T11:34:38.630Z,70.14
2022-12-08T11:37:44.683Z,70.64
2022-12-08T11:40:47.910Z,69.97
2022-12-08T11:43:57.104Z,70.11
2022-12-08T11:47:06.415Z,69.94
2022-12-08T11:50:21.387Z,70.06
2022-12-08T11:53:30.332Z,71.08
2022-12-08T11:56:35.970Z,70.88
2022-12-08T11:59:41.813Z,71.88
2022-12-08T12:02:49.829Z,71.04
2022-12-08T12:06:37.668Z,72.74
2022-12-08T12:09:53.050Z,73.02
2022-12-08T12:13:09.501Z,72.52
2022-12-08T12:16:43.458Z,71.55
2022-12-08T12:19:49.958Z,71.63
2022-12-08T12:23:00.695Z,71.73
2022-12-08T12:26:07.755Z,71.15
2022-12-08T12:29:20.262Z,71.45
2022-12-08T12:32:24.374Z,72.67
2022-12-08T12:35:34.320Z,73.01
2022-12-08T12:38:59.338Z,72.58
2022-12-08T12:42:03.924Z,72.70
2022-12-08T12:45:25.436Z,72.44
2022-12-08T12:48:28.491Z,72.25
2022-12-08T12:51:46.446Z,71.57
2022-12-08T12:55:22.895Z,71.76
2022-12-08T12:58:42.936Z,72.22
2022-12-08T13:01:55.491Z,71.64
2022-12-08T13:05:03.352Z,71.22
2022-12-08T13:08:17.513Z,72.64
2022-12-08T13:11:21.048Z,72.33
2022-12-08T13:14:50.610Z,73.90
2022-12-08T13:17:53.470Z,74.07
2022-12-08T13:21:03.992Z,73.38
2022-12-08T13:24:32.010Z,73.28
2022-12-08T13:27:36.368Z,73.96
2022-12-08T13:30:46.485Z,73.84
2022-12-08T13:33:49.543Z,73.18
2022-12-08T13:37:01.058Z,73.89
2022-12-08T13:40:09.515Z,73.43
2022-12-08T13:43:20.595Z,74.92
2022-12-08T13:54:35.526Z,72.79
2022-12-08T13:57:07.148Z,73.55
2022-12-08T14:00:18.136Z,72.95
2022-12-08T14:03:22.451Z,72.77
2022-12-08T14:06:29.719Z,73.33
2022-12-08T14:09:36.099Z,73.77
2022-12-08T14:12:39.118Z,74.00
2022-12-08T14:15:42.257Z,73.52
2022-12-08T14:18:46.644Z,71.70
2022-12-08T14:21:54.770Z,71.00
2022-12-08T14:24:59.321Z,72.12
2022-12-08T14:28:05.411Z,71.50
2022-12-08T14:31:14.103Z,72.63
2022-12-08T14:34:18.749Z,72.59
2022-12-08T14:37:22.043Z,74.20
2022-12-08T14:40:28.810Z,74.83
2022-12-08T14:43:32.659Z,75.82
2022-12-08T14:46:36.034Z,74.52
2022-12-08T14:49:41.403Z,74.37
2022-12-08T14:52:45.554Z,74.54
2022-12-08T14:55:49.893Z,76.43
2022-12-08T14:59:05.859Z,76.63
2022-12-08T15:02:22.804Z,74.99
2022-12-08T15:05:31.800Z,72.47
2022-12-08T15:08:35.883Z,70.52
2022-12-08T15:11:38.714Z,71.38
2022-12-08T15:14:55.605Z,72.96
2022-12-08T15:18:13.477Z,74.34
2022-12-08T15:21:17.864Z,77.69
2022-12-08T15:24:24.342Z,77.49
2022-12-08T15:27:27.442Z,78.21
2022-12-08T15:30:31.205Z,78.44
2022-12-08T15:33:33.919Z,79.43
2022-12-08T15:36:39.864Z,79.13
2022-12-08T15:39:42.873Z,79.35
2022-12-08T15:42:45.863Z,79.02
2022-12-08T15:45:58.324Z,79.56
2022-12-08T15:49:02.933Z,79.06
2022-12-08T15:52:12.056Z,78.36
2022-12-08T15:55:16.029Z,77.77
2022-12-08T16:01:44.820Z,75.13
2022-12-08T16:05:33.367Z,75.14
2022-12-08T16:08:38.293Z,75.35
2022-12-08T16:12:06.528Z,73.83
2022-12-08T16:18:37.881Z,73.58
2022-12-08T16:22:29.888Z,74.98
2022-12-08T16:25:22.431Z,75.75
2022-12-08T16:28:55.049Z,76.62
2022-12-08T16:31:49.350Z,77.81
2022-12-08T16:34:53.109Z,78.29
2022-12-08T16:37:56.122Z,78.99
2022-12-08T16:41:17.743Z,78.63
2022-12-08T16:44:20.782Z,79.91
2022-12-08T16:47:23.524Z,80.49
2022-12-08T16:50:28.250Z,81.22
2022-12-08T16:53:31.184Z,81.64
2022-12-08T16:56:35.456Z,82.67
2022-12-08T16:59:39.258Z,82.93
2022-12-08T17:02:42.314Z,82.48
2022-12-08T17:05:45.450Z,82.10
2022-12-08T17:08:48.277Z,82.40
2022-12-08T17:11:52.755Z,82.45
2022-12-08T17:14:55.528Z,82.98
2022-12-08T17:17:58.588Z,83.14
2022-12-08T17:21:01.434Z,83.05
2022-12-08T17:24:04.608Z,83.09
2022-12-08T17:27:08.784Z,82.60
2022-12-08T17:30:15.832Z,83.07
2022-12-08T17:33:26.616Z,82.19
2022-12-08T17:36:30.464Z,83.17
2022-12-08T17:39:33.400Z,83.76
2022-12-08T17:42:38.725Z,83.87
2022-12-08T17:45:42.746Z,84.09
2022-12-08T17:48:45.612Z,84.65
2022-12-08T17:51:49.277Z,84.31
2022-12-08T17:54:52.181Z,84.87
2022-12-08T17:57:56.500Z,84.99
2022-12-08T18:00:59.456Z,84.73
2022-12-08T18:04:03.205Z,85.06
2022-12-08T18:07:06.182Z,85.12
2022-12-08T18:10:09.525Z,86.18
2022-12-08T18:13:13.830Z,85.90
2022-12-08T18:16:17.663Z,86.62
2022-12-08T18:19:20.501Z,86.53
2022-12-08T18:22:23.236Z,87.15
2022-12-08T18:25:26.076Z,87.38
2022-12-08T18:28:33.417Z,86.64
2022-12-08T18:31:36.561Z,87.28
2022-12-08T18:34:39.480Z,87.13
2022-12-08T18:37:42.977Z,86.74
2022-12-08T18:40:48.443Z,87.50
2022-12-08T18:43:53.436Z,87.14
2022-12-08T18:46:56.466Z,87.65
2022-12-08T18:49:59.311Z,88.01
2022-12-08T18:53:02.079Z,86.70
2022-12-08T18:56:05.738Z,87.36
2022-12-08T18:59:12.555Z,87.25
2022-12-08T19:02:15.868Z,87.08
2022-12-08T19:05:18.955Z,87.79
2022-12-08T19:08:24.379Z,87.39
2022-12-08T19:11:30.972Z,87.25
2022-12-08T19:14:35.543Z,87.66
2022-12-08T19:17:40.672Z,86.87
2022-12-08T19:20:43.717Z,86.41
2022-12-08T19:23:47.684Z,86.85
2022-12-08T19:26:51.177Z,86.75
2022-12-08T19:29:56.369Z,87.18
2022-12-08T19:32:59.306Z,87.32
2022-12-08T19:36:07.628Z,87.97
2022-12-08T19:39:33.057Z,86.65
2022-12-08T19:42:54.122Z,87.59
2022-12-08T19:45:58.816Z,86.80
2022-12-08T19:49:01.683Z,87.47
2022-12-08T19:52:04.599Z,87.17
2022-12-08T19:55:08.065Z,86.81
2022-12-08T19:58:12.276Z,87.55
2022-12-08T20:01:17.405Z,87.67
2022-12-08T20:04:20.381Z,87.04
2022-12-08T20:07:23.633Z,87.20
2022-12-08T20:10:29.437Z,86.68
2022-12-08T20:13:45.939Z,86.75
2022-12-08T20:16:53.002Z,86.95
2022-12-08T20:19:55.896Z,87.27
2022-12-08T20:22:58.866Z,87.08
2022-12-08T20:26:05.651Z,87.06
2022-12-08T20:29:08.600Z,86.56
2022-12-08T20:32:14.771Z,86.92
2022-12-08T20:35:17.816Z,86.50
2022-12-08T20:38:20.650Z,86.50
2022-12-08T20:41:24.367Z,86.79
2022-12-08T20:44:28.590Z,86.92
2022-12-08T20:47:32.946Z,87.98
2022-12-08T20:50:35.904Z,87.51
2022-12-08T20:53:39.143Z,86.31
2022-12-08T20:56:48.041Z,86.10
2022-12-08T20:59:51.430Z,86.68
2022-12-08T21:02:57.100Z,86.68
2022-12-08T21:06:01.005Z,87.02
2022-12-08T21:09:03.954Z,87.13
2022-12-08T21:12:07.341Z,86.88
2022-12-08T21:15:12.546Z,86.69
2022-12-08T21:18:18.004Z,85.39
2022-12-08T21:21:21.097Z,84.92
2022-12-08T21:24:28.828Z,84.85
2022-12-08T21:27:35.444Z,85.34
2022-12-08T21:30:40.109Z,85.33
2022-12-08T21:33:44.540Z,84.43
2022-12-08T21:36:47.584Z,84.72
2022-12-08T21:39:50.600Z,85.31
2022-12-08T21:42:54.219Z,84.54
2022-12-08T21:45:57.352Z,84.79
2022-12-08T21:49:01.805Z,84.71
2022-12-08T21:52:04.950Z,84.73
2022-12-08T21:55:09.099Z,84.59
2022-12-08T21:58:12.204Z,84.00
2022-12-08T22:01:15.289Z,83.21
2022-12-08T22:04:21.530Z,83.07
2022-12-08T22:07:24.766Z,83.03
2022-12-08T22:10:27.716Z,82.66
2022-12-08T22:13:30.657Z,82.25
2022-12-08T22:16:33.585Z,82.16
2022-12-08T22:19:38.190Z,82.68
2022-12-08T22:22:41.962Z,83.11
2022-12-08T22:25:49.235Z,83.19
2022-12-08T22:28:52.324Z,82.53
2022-12-08T22:31:55.336Z,81.73
2022-12-08T22:34:59.556Z,82.06
2022-12-08T22:38:02.599Z,81.96
2022-12-08T22:41:05.786Z,82.46
2022-12-08T22:44:09.173Z,82.84
2022-12-08T22:47:12.115Z,83.44
2022-12-08T22:50:16.810Z,83.56
2022-12-08T22:53:25.432Z,83.18
2022-12-08T22:56:40.351Z,82.89
2022-12-08T22:59:45.231Z,82.42
2022-12-08T23:02:48.189Z,83.01
2022-12-08T23:05:52.679Z,82.42
2022-12-08T23:08:56.090Z,82.12
2022-12-08T23:11:59.570Z,82.31
2022-12-08T23:15:02.957Z,81.85
2022-12-08T23:18:06.321Z,81.58
2022-12-08T23:21:13.841Z,81.01
2022-12-08T23:24:16.824Z,81.29
2022-12-08T23:27:19.626Z,82.04
2022-12-08T23:30:22.726Z,82.01
2022-12-08T23:33:25.601Z,81.21
2022-12-08T23:36:29.862Z,81.54
2022-12-08T23:39:32.989Z,81.63
2022-12-08T23:42:36.102Z,81.86
2022-12-08T23:45:38.926Z,82.46
2022-12-08T23:48:41.849Z,81.99
2022-12-08T23:51:46.154Z,82.65
2022-12-08T23:54:50.746Z,82.39
2022-12-08T23:57:53.521Z,82.52
